sensor_id;sensor_type;location;lat;lon;timestamp;temperature;humidity
37678;DHT22;23517;50.390;8.616;2023-06-22T00:01:45;20.00;54.40
37678;DHT22;23517;50.390;8.616;2023-06-22T00:04:12;20.00;54.40
37678;DHT22;23517;50.390;8.616;2023-06-22T00:06:39;20.00;54.60
37678;DHT22;23517;50.390;8.616;2023-06-22T00:09:05;20.00;54.70
37678;DHT22;23517;50.390;8.616;2023-06-22T00:11:33;20.10;54.20
37678;DHT22;23517;50.390;8.616;2023-06-22T00:14:00;20.40;53.00
37678;DHT22;23517;50.390;8.616;2023-06-22T00:16:27;20.50;52.30
37678;DHT22;23517;50.390;8.616;2023-06-22T00:18:53;20.70;52.00
37678;DHT22;23517;50.390;8.616;2023-06-22T00:21:20;20.80;51.80
37678;DHT22;23517;50.390;8.616;2023-06-22T00:23:47;20.80;51.70
37678;DHT22;23517;50.390;8.616;2023-06-22T00:26:13;20.90;51.30
37678;DHT22;23517;50.390;8.616;2023-06-22T00:28:40;20.80;51.60
37678;DHT22;23517;50.390;8.616;2023-06-22T00:31:07;20.80;52.00
37678;DHT22;23517;50.390;8.616;2023-06-22T00:33:34;20.80;52.00
37678;DHT22;23517;50.390;8.616;2023-06-22T00:36:01;20.80;52.40
37678;DHT22;23517;50.390;8.616;2023-06-22T00:38:29;20.70;52.60
37678;DHT22;23517;50.390;8.616;2023-06-22T00:40:56;20.70;52.50
37678;DHT22;23517;50.390;8.616;2023-06-22T00:43:22;20.80;52.30
37678;DHT22;23517;50.390;8.616;2023-06-22T00:45:49;20.80;52.20
37678;DHT22;23517;50.390;8.616;2023-06-22T00:48:16;20.80;52.60
37678;DHT22;23517;50.390;8.616;2023-06-22T00:50:43;20.80;52.80
37678;DHT22;23517;50.390;8.616;2023-06-22T00:53:10;20.90;53.30
37678;DHT22;23517;50.390;8.616;2023-06-22T00:55:39;21.00;53.60
37678;DHT22;23517;50.390;8.616;2023-06-22T00:58:09;20.90;54.80
37678;DHT22;23517;50.390;8.616;2023-06-22T01:00:41;21.00;55.20
37678;DHT22;23517;50.390;8.616;2023-06-22T01:03:08;21.00;54.70
37678;DHT22;23517;50.390;8.616;2023-06-22T01:05:38;21.00;54.40
37678;DHT22;23517;50.390;8.616;2023-06-22T01:08:31;21.00;55.60
37678;DHT22;23517;50.390;8.616;2023-06-22T01:11:13;21.00;55.70
37678;DHT22;23517;50.390;8.616;2023-06-22T01:14:00;21.00;56.20
37678;DHT22;23517;50.390;8.616;2023-06-22T01:16:32;20.90;56.60
37678;DHT22;23517;50.390;8.616;2023-06-22T01:19:15;20.80;57.10
37678;DHT22;23517;50.390;8.616;2023-06-22T01:22:08;20.70;58.70
37678;DHT22;23517;50.390;8.616;2023-06-22T01:24:55;20.70;60.60
37678;DHT22;23517;50.390;8.616;2023-06-22T01:30:32;20.40;65.50
37678;DHT22;23517;50.390;8.616;2023-06-22T01:33:01;20.40;66.80
37678;DHT22;23517;50.390;8.616;2023-06-22T01:35:29;20.30;67.20
37678;DHT22;23517;50.390;8.616;2023-06-22T01:37:56;20.30;68.30
37678;DHT22;23517;50.390;8.616;2023-06-22T01:40:24;20.30;69.50
37678;DHT22;23517;50.390;8.616;2023-06-22T01:42:51;20.30;68.80
37678;DHT22;23517;50.390;8.616;2023-06-22T01:45:18;20.40;68.00
37678;DHT22;23517;50.390;8.616;2023-06-22T01:47:46;20.20;69.50
37678;DHT22;23517;50.390;8.616;2023-06-22T01:50:13;20.20;72.00
37678;DHT22;23517;50.390;8.616;2023-06-22T01:52:41;20.10;73.50
37678;DHT22;23517;50.390;8.616;2023-06-22T01:55:08;20.00;74.90
37678;DHT22;23517;50.390;8.616;2023-06-22T01:57:35;20.00;77.10
37678;DHT22;23517;50.390;8.616;2023-06-22T02:00:22;20.00;78.00
37678;DHT22;23517;50.390;8.616;2023-06-22T02:05:33;20.00;78.40
37678;DHT22;23517;50.390;8.616;2023-06-22T02:08:16;19.90;77.90
37678;DHT22;23517;50.390;8.616;2023-06-22T02:10:48;19.90;77.90
37678;DHT22;23517;50.390;8.616;2023-06-22T02:13:16;19.90;77.90
37678;DHT22;23517;50.390;8.616;2023-06-22T02:15:43;19.90;78.60
37678;DHT22;23517;50.390;8.616;2023-06-22T02:18:10;19.80;79.70
37678;DHT22;23517;50.390;8.616;2023-06-22T02:20:38;19.70;80.00
37678;DHT22;23517;50.390;8.616;2023-06-22T02:23:06;19.80;80.80
37678;DHT22;23517;50.390;8.616;2023-06-22T02:25:34;19.70;81.30
37678;DHT22;23517;50.390;8.616;2023-06-22T02:28:02;19.60;81.00
37678;DHT22;23517;50.390;8.616;2023-06-22T02:30:29;19.60;82.20
37678;DHT22;23517;50.390;8.616;2023-06-22T02:32:56;19.50;82.80
37678;DHT22;23517;50.390;8.616;2023-06-22T02:35:29;19.50;83.30
37678;DHT22;23517;50.390;8.616;2023-06-22T02:40:34;19.50;84.50
37678;DHT22;23517;50.390;8.616;2023-06-22T02:43:01;19.50;85.10
37678;DHT22;23517;50.390;8.616;2023-06-22T02:45:30;19.50;85.20
37678;DHT22;23517;50.390;8.616;2023-06-22T02:47:57;19.50;84.20
37678;DHT22;23517;50.390;8.616;2023-06-22T02:50:24;19.60;84.30
37678;DHT22;23517;50.390;8.616;2023-06-22T02:52:51;19.60;82.70
37678;DHT22;23517;50.390;8.616;2023-06-22T02:55:18;19.60;83.20
37678;DHT22;23517;50.390;8.616;2023-06-22T02:57:45;19.60;83.10
37678;DHT22;23517;50.390;8.616;2023-06-22T03:00:14;19.70;83.10
37678;DHT22;23517;50.390;8.616;2023-06-22T03:02:45;19.70;83.80
37678;DHT22;23517;50.390;8.616;2023-06-22T03:05:15;19.70;82.50
37678;DHT22;23517;50.390;8.616;2023-06-22T03:07:45;19.70;83.40
37678;DHT22;23517;50.390;8.616;2023-06-22T03:10:13;19.70;82.60
37678;DHT22;23517;50.390;8.616;2023-06-22T03:12:41;19.60;83.30
37678;DHT22;23517;50.390;8.616;2023-06-22T03:15:10;19.50;84.50
37678;DHT22;23517;50.390;8.616;2023-06-22T03:17:39;19.50;85.00
37678;DHT22;23517;50.390;8.616;2023-06-22T03:20:07;19.50;84.80
37678;DHT22;23517;50.390;8.616;2023-06-22T03:22:39;19.50;83.70
37678;DHT22;23517;50.390;8.616;2023-06-22T03:25:08;19.40;83.60
37678;DHT22;23517;50.390;8.616;2023-06-22T03:27:40;19.30;84.30
37678;DHT22;23517;50.390;8.616;2023-06-22T03:30:11;19.30;85.10
37678;DHT22;23517;50.390;8.616;2023-06-22T03:32:38;19.20;85.50
37678;DHT22;23517;50.390;8.616;2023-06-22T03:35:07;19.20;86.50
37678;DHT22;23517;50.390;8.616;2023-06-22T03:37:34;19.20;87.20
37678;DHT22;23517;50.390;8.616;2023-06-22T03:40:00;19.10;86.40
37678;DHT22;23517;50.390;8.616;2023-06-22T03:42:27;19.10;86.30
37678;DHT22;23517;50.390;8.616;2023-06-22T03:44:54;19.10;86.30
37678;DHT22;23517;50.390;8.616;2023-06-22T03:47:21;19.10;86.10
37678;DHT22;23517;50.390;8.616;2023-06-22T03:49:51;19.10;86.00
37678;DHT22;23517;50.390;8.616;2023-06-22T03:52:21;19.10;86.10
37678;DHT22;23517;50.390;8.616;2023-06-22T03:54:48;19.10;85.30
37678;DHT22;23517;50.390;8.616;2023-06-22T03:57:17;19.20;84.60
37678;DHT22;23517;50.390;8.616;2023-06-22T03:59:44;19.20;84.60
37678;DHT22;23517;50.390;8.616;2023-06-22T04:02:11;19.30;84.40
37678;DHT22;23517;50.390;8.616;2023-06-22T04:04:37;19.30;85.30
37678;DHT22;23517;50.390;8.616;2023-06-22T04:07:07;19.30;84.60
37678;DHT22;23517;50.390;8.616;2023-06-22T04:09:34;19.20;85.30
37678;DHT22;23517;50.390;8.616;2023-06-22T04:12:01;19.20;85.40
37678;DHT22;23517;50.390;8.616;2023-06-22T04:14:28;19.20;85.80
37678;DHT22;23517;50.390;8.616;2023-06-22T04:16:55;19.20;85.60
37678;DHT22;23517;50.390;8.616;2023-06-22T04:19:21;19.30;85.60
37678;DHT22;23517;50.390;8.616;2023-06-22T04:21:48;19.30;85.80
37678;DHT22;23517;50.390;8.616;2023-06-22T04:24:15;19.40;85.10
37678;DHT22;23517;50.390;8.616;2023-06-22T04:26:42;19.40;85.00
37678;DHT22;23517;50.390;8.616;2023-06-22T04:29:12;19.40;84.50
37678;DHT22;23517;50.390;8.616;2023-06-22T04:31:39;19.50;84.20
37678;DHT22;23517;50.390;8.616;2023-06-22T04:34:06;19.50;84.40
37678;DHT22;23517;50.390;8.616;2023-06-22T04:36:38;19.50;83.50
37678;DHT22;23517;50.390;8.616;2023-06-22T04:39:07;19.50;84.10
37678;DHT22;23517;50.390;8.616;2023-06-22T04:41:40;19.50;83.90
37678;DHT22;23517;50.390;8.616;2023-06-22T04:44:14;19.50;84.30
37678;DHT22;23517;50.390;8.616;2023-06-22T04:46:51;19.60;84.00
37678;DHT22;23517;50.390;8.616;2023-06-22T04:49:35;19.80;82.60
37678;DHT22;23517;50.390;8.616;2023-06-22T04:52:08;19.80;82.20
37678;DHT22;23517;50.390;8.616;2023-06-22T04:54:37;19.70;83.00
37678;DHT22;23517;50.390;8.616;2023-06-22T04:57:06;19.70;82.70
37678;DHT22;23517;50.390;8.616;2023-06-22T04:59:38;19.70;83.40
37678;DHT22;23517;50.390;8.616;2023-06-22T05:02:08;19.90;83.10
37678;DHT22;23517;50.390;8.616;2023-06-22T05:04:35;20.00;82.20
37678;DHT22;23517;50.390;8.616;2023-06-22T05:07:05;20.10;81.50
37678;DHT22;23517;50.390;8.616;2023-06-22T05:09:32;20.10;80.60
37678;DHT22;23517;50.390;8.616;2023-06-22T05:12:02;20.30;79.30
37678;DHT22;23517;50.390;8.616;2023-06-22T05:14:29;20.40;78.60
37678;DHT22;23517;50.390;8.616;2023-06-22T05:16:56;20.50;77.10
37678;DHT22;23517;50.390;8.616;2023-06-22T05:19:25;20.60;76.30
37678;DHT22;23517;50.390;8.616;2023-06-22T05:21:57;20.80;75.00
37678;DHT22;23517;50.390;8.616;2023-06-22T05:24:24;20.80;75.30
37678;DHT22;23517;50.390;8.616;2023-06-22T05:26:51;20.80;74.40
37678;DHT22;23517;50.390;8.616;2023-06-22T05:29:18;20.80;74.10
37678;DHT22;23517;50.390;8.616;2023-06-22T05:31:44;20.90;74.10
37678;DHT22;23517;50.390;8.616;2023-06-22T05:34:11;21.00;72.70
37678;DHT22;23517;50.390;8.616;2023-06-22T05:36:38;21.20;72.20
37678;DHT22;23517;50.390;8.616;2023-06-22T05:39:11;21.60;69.50
37678;DHT22;23517;50.390;8.616;2023-06-22T05:41:42;21.90;67.80
37678;DHT22;23517;50.390;8.616;2023-06-22T05:44:09;22.10;66.90
37678;DHT22;23517;50.390;8.616;2023-06-22T05:46:37;22.30;63.50
37678;DHT22;23517;50.390;8.616;2023-06-22T05:49:12;22.40;62.20
37678;DHT22;23517;50.390;8.616;2023-06-22T05:51:40;22.70;60.90
37678;DHT22;23517;50.390;8.616;2023-06-22T05:54:07;23.00;59.90
37678;DHT22;23517;50.390;8.616;2023-06-22T05:56:37;23.40;57.20
37678;DHT22;23517;50.390;8.616;2023-06-22T05:59:04;23.40;55.30
37678;DHT22;23517;50.390;8.616;2023-06-22T06:01:31;23.40;56.90
37678;DHT22;23517;50.390;8.616;2023-06-22T06:04:04;24.40;53.40
37678;DHT22;23517;50.390;8.616;2023-06-22T06:06:31;25.40;47.60
37678;DHT22;23517;50.390;8.616;2023-06-22T06:08:58;26.10;41.80
37678;DHT22;23517;50.390;8.616;2023-06-22T06:11:26;26.20;41.30
37678;DHT22;23517;50.390;8.616;2023-06-22T06:13:52;26.20;42.10
37678;DHT22;23517;50.390;8.616;2023-06-22T06:16:19;26.70;39.10
37678;DHT22;23517;50.390;8.616;2023-06-22T06:18:46;26.40;40.20
37678;DHT22;23517;50.390;8.616;2023-06-22T06:21:15;26.20;41.70
37678;DHT22;23517;50.390;8.616;2023-06-22T06:23:42;26.70;37.30
37678;DHT22;23517;50.390;8.616;2023-06-22T06:26:08;27.00;37.20
37678;DHT22;23517;50.390;8.616;2023-06-22T06:28:36;27.50;36.90
37678;DHT22;23517;50.390;8.616;2023-06-22T06:31:03;28.60;32.60
37678;DHT22;23517;50.390;8.616;2023-06-22T06:36:00;29.70;29.40
37678;DHT22;23517;50.390;8.616;2023-06-22T06:38:30;30.70;28.80
37678;DHT22;23517;50.390;8.616;2023-06-22T06:40:58;31.70;25.50
37678;DHT22;23517;50.390;8.616;2023-06-22T06:43:25;31.70;25.40
37678;DHT22;23517;50.390;8.616;2023-06-22T06:45:52;31.20;26.80
37678;DHT22;23517;50.390;8.616;2023-06-22T06:48:18;32.00;25.20
37678;DHT22;23517;50.390;8.616;2023-06-22T06:50:45;31.80;25.30
37678;DHT22;23517;50.390;8.616;2023-06-22T06:53:12;32.00;26.70
37678;DHT22;23517;50.390;8.616;2023-06-22T06:55:38;32.70;23.70
37678;DHT22;23517;50.390;8.616;2023-06-22T06:58:05;32.50;23.90
37678;DHT22;23517;50.390;8.616;2023-06-22T07:00:34;33.60;22.80
37678;DHT22;23517;50.390;8.616;2023-06-22T07:03:02;34.80;20.00
37678;DHT22;23517;50.390;8.616;2023-06-22T07:05:29;34.50;20.00
37678;DHT22;23517;50.390;8.616;2023-06-22T07:07:56;34.20;21.10
37678;DHT22;23517;50.390;8.616;2023-06-22T07:10:22;33.70;21.90
37678;DHT22;23517;50.390;8.616;2023-06-22T07:12:49;33.70;21.90
37678;DHT22;23517;50.390;8.616;2023-06-22T07:15:16;33.60;21.30
37678;DHT22;23517;50.390;8.616;2023-06-22T07:17:47;33.60;22.60
37678;DHT22;23517;50.390;8.616;2023-06-22T07:20:22;32.70;23.40
37678;DHT22;23517;50.390;8.616;2023-06-22T07:22:51;32.80;24.00
37678;DHT22;23517;50.390;8.616;2023-06-22T07:25:19;34.20;21.00
37678;DHT22;23517;50.390;8.616;2023-06-22T07:30:28;34.30;20.40
37678;DHT22;23517;50.390;8.616;2023-06-22T07:33:02;35.40;19.30
37678;DHT22;23517;50.390;8.616;2023-06-22T07:35:40;35.70;19.30
37678;DHT22;23517;50.390;8.616;2023-06-22T07:38:09;35.40;19.30
37678;DHT22;23517;50.390;8.616;2023-06-22T07:40:37;36.00;18.60
37678;DHT22;23517;50.390;8.616;2023-06-22T07:48:14;36.10;17.50
37678;DHT22;23517;50.390;8.616;2023-06-22T07:50:45;37.20;16.60
37678;DHT22;23517;50.390;8.616;2023-06-22T07:53:18;37.20;17.20
37678;DHT22;23517;50.390;8.616;2023-06-22T07:55:50;38.10;15.30
37678;DHT22;23517;50.390;8.616;2023-06-22T07:58:18;38.60;14.10
37678;DHT22;23517;50.390;8.616;2023-06-22T08:00:54;38.80;14.50
37678;DHT22;23517;50.390;8.616;2023-06-22T08:03:20;38.60;14.90
37678;DHT22;23517;50.390;8.616;2023-06-22T08:05:47;37.90;14.80
37678;DHT22;23517;50.390;8.616;2023-06-22T08:08:14;37.70;15.10
37678;DHT22;23517;50.390;8.616;2023-06-22T08:10:41;38.20;15.40
37678;DHT22;23517;50.390;8.616;2023-06-22T08:13:10;38.90;14.20
37678;DHT22;23517;50.390;8.616;2023-06-22T08:15:37;38.90;14.10
37678;DHT22;23517;50.390;8.616;2023-06-22T08:18:04;38.60;14.10
37678;DHT22;23517;50.390;8.616;2023-06-22T08:20:38;37.40;16.30
37678;DHT22;23517;50.390;8.616;2023-06-22T08:23:04;37.90;14.50
37678;DHT22;23517;50.390;8.616;2023-06-22T08:25:33;38.10;14.40
37678;DHT22;23517;50.390;8.616;2023-06-22T08:28:03;37.60;15.10
37678;DHT22;23517;50.390;8.616;2023-06-22T08:30:30;37.80;15.30
37678;DHT22;23517;50.390;8.616;2023-06-22T08:32:57;37.90;15.20
37678;DHT22;23517;50.390;8.616;2023-06-22T08:35:25;37.80;15.40
37678;DHT22;23517;50.390;8.616;2023-06-22T08:37:52;38.30;14.40
37678;DHT22;23517;50.390;8.616;2023-06-22T08:40:22;38.20;14.60
37678;DHT22;23517;50.390;8.616;2023-06-22T08:42:49;37.60;15.80
37678;DHT22;23517;50.390;8.616;2023-06-22T08:45:16;37.00;17.00
37678;DHT22;23517;50.390;8.616;2023-06-22T08:47:45;37.00;16.90
37678;DHT22;23517;50.390;8.616;2023-06-22T08:50:12;37.40;15.70
37678;DHT22;23517;50.390;8.616;2023-06-22T08:52:41;37.40;16.20
37678;DHT22;23517;50.390;8.616;2023-06-22T08:55:08;37.20;16.40
37678;DHT22;23517;50.390;8.616;2023-06-22T08:57:36;37.20;16.90
37678;DHT22;23517;50.390;8.616;2023-06-22T09:00:08;37.50;16.50
37678;DHT22;23517;50.390;8.616;2023-06-22T09:02:44;37.40;15.60
37678;DHT22;23517;50.390;8.616;2023-06-22T09:05:12;37.20;16.40
37678;DHT22;23517;50.390;8.616;2023-06-22T09:07:39;36.20;17.20
37678;DHT22;23517;50.390;8.616;2023-06-22T09:10:07;36.10;17.20
37678;DHT22;23517;50.390;8.616;2023-06-22T09:12:34;36.40;16.90
37678;DHT22;23517;50.390;8.616;2023-06-22T09:15:03;36.20;17.40
37678;DHT22;23517;50.390;8.616;2023-06-22T09:17:30;36.10;17.30
37678;DHT22;23517;50.390;8.616;2023-06-22T09:19:57;36.10;17.50
37678;DHT22;23517;50.390;8.616;2023-06-22T09:22:24;36.30;17.60
37678;DHT22;23517;50.390;8.616;2023-06-22T09:24:55;36.40;17.00
37678;DHT22;23517;50.390;8.616;2023-06-22T09:27:23;36.90;17.00
37678;DHT22;23517;50.390;8.616;2023-06-22T09:29:50;36.40;17.40
37678;DHT22;23517;50.390;8.616;2023-06-22T09:32:25;36.40;16.80
37678;DHT22;23517;50.390;8.616;2023-06-22T09:34:52;35.50;18.20
37678;DHT22;23517;50.390;8.616;2023-06-22T09:37:19;34.80;18.90
37678;DHT22;23517;50.390;8.616;2023-06-22T09:39:46;34.20;19.80
37678;DHT22;23517;50.390;8.616;2023-06-22T09:42:13;33.20;21.40
37678;DHT22;23517;50.390;8.616;2023-06-22T09:44:40;32.30;23.20
37678;DHT22;23517;50.390;8.616;2023-06-22T09:47:07;31.50;24.00
37678;DHT22;23517;50.390;8.616;2023-06-22T09:49:34;31.50;23.30
37678;DHT22;23517;50.390;8.616;2023-06-22T09:52:13;31.80;23.40
37678;DHT22;23517;50.390;8.616;2023-06-22T09:54:40;32.70;21.60
37678;DHT22;23517;50.390;8.616;2023-06-22T09:57:07;33.30;20.30
37678;DHT22;23517;50.390;8.616;2023-06-22T09:59:33;33.50;20.50
37678;DHT22;23517;50.390;8.616;2023-06-22T10:02:00;33.60;21.10
37678;DHT22;23517;50.390;8.616;2023-06-22T10:04:27;32.20;22.70
37678;DHT22;23517;50.390;8.616;2023-06-22T10:06:54;31.40;24.00
37678;DHT22;23517;50.390;8.616;2023-06-22T10:09:21;30.50;26.40
37678;DHT22;23517;50.390;8.616;2023-06-22T10:11:48;30.70;26.10
37678;DHT22;23517;50.390;8.616;2023-06-22T10:14:14;30.50;27.00
37678;DHT22;23517;50.390;8.616;2023-06-22T10:16:41;30.60;26.60
37678;DHT22;23517;50.390;8.616;2023-06-22T10:19:08;30.40;26.90
37678;DHT22;23517;50.390;8.616;2023-06-22T10:21:35;30.70;27.00
37678;DHT22;23517;50.390;8.616;2023-06-22T10:24:02;30.60;25.80
37678;DHT22;23517;50.390;8.616;2023-06-22T10:26:33;30.70;25.70
37678;DHT22;23517;50.390;8.616;2023-06-22T10:29:00;30.50;25.80
37678;DHT22;23517;50.390;8.616;2023-06-22T10:31:42;30.50;25.60
37678;DHT22;23517;50.390;8.616;2023-06-22T10:34:09;30.60;25.30
37678;DHT22;23517;50.390;8.616;2023-06-22T10:36:36;30.40;25.20
37678;DHT22;23517;50.390;8.616;2023-06-22T10:39:02;30.40;26.00
37678;DHT22;23517;50.390;8.616;2023-06-22T10:41:29;30.20;25.80
37678;DHT22;23517;50.390;8.616;2023-06-22T10:43:57;30.20;25.40
37678;DHT22;23517;50.390;8.616;2023-06-22T10:46:25;30.00;26.40
37678;DHT22;23517;50.390;8.616;2023-06-22T10:48:54;29.80;25.90
37678;DHT22;23517;50.390;8.616;2023-06-22T10:51:23;29.80;25.70
37678;DHT22;23517;50.390;8.616;2023-06-22T10:53:50;29.90;26.00
37678;DHT22;23517;50.390;8.616;2023-06-22T10:56:18;30.00;26.50
37678;DHT22;23517;50.390;8.616;2023-06-22T10:58:45;30.20;26.10
37678;DHT22;23517;50.390;8.616;2023-06-22T11:01:12;30.30;26.90
37678;DHT22;23517;50.390;8.616;2023-06-22T11:04:00;30.40;26.20
37678;DHT22;23517;50.390;8.616;2023-06-22T11:06:28;30.20;26.70
37678;DHT22;23517;50.390;8.616;2023-06-22T11:08:54;30.10;26.80
37678;DHT22;23517;50.390;8.616;2023-06-22T11:11:32;30.40;26.50
37678;DHT22;23517;50.390;8.616;2023-06-22T11:13:59;30.30;25.40
37678;DHT22;23517;50.390;8.616;2023-06-22T11:16:26;30.20;24.80
37678;DHT22;23517;50.390;8.616;2023-06-22T11:18:53;29.80;25.40
37678;DHT22;23517;50.390;8.616;2023-06-22T11:21:20;29.80;25.50
37678;DHT22;23517;50.390;8.616;2023-06-22T11:23:47;29.80;24.40
37678;DHT22;23517;50.390;8.616;2023-06-22T11:26:15;30.00;25.10
37678;DHT22;23517;50.390;8.616;2023-06-22T11:28:41;30.20;25.30
37678;DHT22;23517;50.390;8.616;2023-06-22T11:31:08;30.40;24.50
37678;DHT22;23517;50.390;8.616;2023-06-22T11:33:52;30.50;24.50
37678;DHT22;23517;50.390;8.616;2023-06-22T11:36:19;30.60;23.80
37678;DHT22;23517;50.390;8.616;2023-06-22T11:38:46;30.70;23.40
37678;DHT22;23517;50.390;8.616;2023-06-22T11:41:13;30.70;22.30
37678;DHT22;23517;50.390;8.616;2023-06-22T11:43:39;30.60;22.10
37678;DHT22;23517;50.390;8.616;2023-06-22T11:46:06;30.70;21.40
37678;DHT22;23517;50.390;8.616;2023-06-22T11:48:33;30.70;21.60
37678;DHT22;23517;50.390;8.616;2023-06-22T11:51:00;30.50;20.80
37678;DHT22;23517;50.390;8.616;2023-06-22T11:53:29;30.40;20.60
37678;DHT22;23517;50.390;8.616;2023-06-22T11:55:56;30.50;20.70
37678;DHT22;23517;50.390;8.616;2023-06-22T11:58:23;30.50;20.90
37678;DHT22;23517;50.390;8.616;2023-06-22T12:00:49;30.40;21.10
37678;DHT22;23517;50.390;8.616;2023-06-22T12:03:18;30.50;21.30
37678;DHT22;23517;50.390;8.616;2023-06-22T12:05:46;30.70;21.30
37678;DHT22;23517;50.390;8.616;2023-06-22T12:08:14;30.90;21.10
37678;DHT22;23517;50.390;8.616;2023-06-22T12:10:40;30.90;21.60
37678;DHT22;23517;50.390;8.616;2023-06-22T12:13:07;30.80;21.60
37678;DHT22;23517;50.390;8.616;2023-06-22T12:15:34;30.70;22.40
37678;DHT22;23517;50.390;8.616;2023-06-22T12:18:00;30.70;22.40
37678;DHT22;23517;50.390;8.616;2023-06-22T12:20:28;30.80;22.10
37678;DHT22;23517;50.390;8.616;2023-06-22T12:22:55;31.00;22.40
37678;DHT22;23517;50.390;8.616;2023-06-22T12:25:24;31.00;22.40
37678;DHT22;23517;50.390;8.616;2023-06-22T12:27:51;31.00;22.70
37678;DHT22;23517;50.390;8.616;2023-06-22T12:30:18;31.10;22.80
37678;DHT22;23517;50.390;8.616;2023-06-22T12:32:44;31.00;22.70
37678;DHT22;23517;50.390;8.616;2023-06-22T12:35:11;31.00;22.70
37678;DHT22;23517;50.390;8.616;2023-06-22T12:37:41;31.10;22.60
37678;DHT22;23517;50.390;8.616;2023-06-22T12:40:09;31.30;22.40
37678;DHT22;23517;50.390;8.616;2023-06-22T12:42:36;31.20;22.90
37678;DHT22;23517;50.390;8.616;2023-06-22T12:45:04;31.20;23.40
37678;DHT22;23517;50.390;8.616;2023-06-22T12:47:31;31.30;23.00
37678;DHT22;23517;50.390;8.616;2023-06-22T12:49:58;31.10;23.10
37678;DHT22;23517;50.390;8.616;2023-06-22T12:52:25;31.10;23.00
37678;DHT22;23517;50.390;8.616;2023-06-22T12:54:52;31.20;22.80
37678;DHT22;23517;50.390;8.616;2023-06-22T12:57:21;31.40;22.30
37678;DHT22;23517;50.390;8.616;2023-06-22T12:59:48;31.10;23.10
37678;DHT22;23517;50.390;8.616;2023-06-22T13:02:15;31.20;22.90
37678;DHT22;23517;50.390;8.616;2023-06-22T13:04:42;31.40;22.70
37678;DHT22;23517;50.390;8.616;2023-06-22T13:07:09;31.30;22.60
37678;DHT22;23517;50.390;8.616;2023-06-22T13:09:49;31.30;23.00
37678;DHT22;23517;50.390;8.616;2023-06-22T13:12:20;31.30;23.00
37678;DHT22;23517;50.390;8.616;2023-06-22T13:14:47;31.60;23.00
37678;DHT22;23517;50.390;8.616;2023-06-22T13:17:14;31.80;22.40
37678;DHT22;23517;50.390;8.616;2023-06-22T13:19:41;31.80;21.60
37678;DHT22;23517;50.390;8.616;2023-06-22T13:25:09;31.70;21.40
37678;DHT22;23517;50.390;8.616;2023-06-22T13:27:42;31.60;22.30
37678;DHT22;23517;50.390;8.616;2023-06-22T13:30:10;31.60;21.90
37678;DHT22;23517;50.390;8.616;2023-06-22T13:32:40;31.70;22.00
37678;DHT22;23517;50.390;8.616;2023-06-22T13:35:11;31.60;23.00
37678;DHT22;23517;50.390;8.616;2023-06-22T13:37:38;31.70;22.50
37678;DHT22;23517;50.390;8.616;2023-06-22T13:40:06;31.40;22.30
37678;DHT22;23517;50.390;8.616;2023-06-22T13:42:34;31.60;22.10
37678;DHT22;23517;50.390;8.616;2023-06-22T13:45:01;31.60;22.00
37678;DHT22;23517;50.390;8.616;2023-06-22T13:47:29;31.50;21.70
37678;DHT22;23517;50.390;8.616;2023-06-22T13:49:57;31.60;22.50
37678;DHT22;23517;50.390;8.616;2023-06-22T13:52:26;31.70;23.30
37678;DHT22;23517;50.390;8.616;2023-06-22T13:54:52;31.70;22.90
37678;DHT22;23517;50.390;8.616;2023-06-22T13:57:19;31.40;23.80
37678;DHT22;23517;50.390;8.616;2023-06-22T13:59:46;31.10;24.40
37678;DHT22;23517;50.390;8.616;2023-06-22T14:02:13;31.10;25.00
37678;DHT22;23517;50.390;8.616;2023-06-22T14:04:43;31.10;24.80
37678;DHT22;23517;50.390;8.616;2023-06-22T14:07:10;31.10;24.30
37678;DHT22;23517;50.390;8.616;2023-06-22T14:09:36;31.10;24.80
37678;DHT22;23517;50.390;8.616;2023-06-22T14:12:07;31.00;24.40
37678;DHT22;23517;50.390;8.616;2023-06-22T14:14:34;30.90;23.60
37678;DHT22;23517;50.390;8.616;2023-06-22T14:17:01;30.90;24.10
37678;DHT22;23517;50.390;8.616;2023-06-22T14:19:28;31.10;24.40
37678;DHT22;23517;50.390;8.616;2023-06-22T14:21:55;31.00;24.80
37678;DHT22;23517;50.390;8.616;2023-06-22T14:24:23;31.20;24.60
37678;DHT22;23517;50.390;8.616;2023-06-22T14:26:52;31.40;24.40
37678;DHT22;23517;50.390;8.616;2023-06-22T14:29:19;31.50;24.00
37678;DHT22;23517;50.390;8.616;2023-06-22T14:31:45;31.10;24.40
37678;DHT22;23517;50.390;8.616;2023-06-22T14:34:13;30.70;24.60
37678;DHT22;23517;50.390;8.616;2023-06-22T14:36:40;30.80;25.00
37678;DHT22;23517;50.390;8.616;2023-06-22T14:39:08;30.60;25.30
37678;DHT22;23517;50.390;8.616;2023-06-22T14:41:35;30.40;25.00
37678;DHT22;23517;50.390;8.616;2023-06-22T14:44:02;30.30;25.00
37678;DHT22;23517;50.390;8.616;2023-06-22T14:46:29;30.20;25.40
37678;DHT22;23517;50.390;8.616;2023-06-22T14:48:56;30.10;25.60
37678;DHT22;23517;50.390;8.616;2023-06-22T14:51:22;30.00;26.20
37678;DHT22;23517;50.390;8.616;2023-06-22T14:53:49;29.90;26.30
37678;DHT22;23517;50.390;8.616;2023-06-22T14:56:16;29.90;26.50
37678;DHT22;23517;50.390;8.616;2023-06-22T14:58:43;29.80;26.70
37678;DHT22;23517;50.390;8.616;2023-06-22T15:01:12;29.90;26.90
37678;DHT22;23517;50.390;8.616;2023-06-22T15:03:39;29.80;27.50
37678;DHT22;23517;50.390;8.616;2023-06-22T15:06:09;29.80;27.70
37678;DHT22;23517;50.390;8.616;2023-06-22T15:08:40;29.80;27.70
37678;DHT22;23517;50.390;8.616;2023-06-22T15:11:08;29.80;28.50
37678;DHT22;23517;50.390;8.616;2023-06-22T15:13:39;29.70;28.50
37678;DHT22;23517;50.390;8.616;2023-06-22T15:16:06;29.70;28.70
37678;DHT22;23517;50.390;8.616;2023-06-22T15:18:33;29.60;29.10
37678;DHT22;23517;50.390;8.616;2023-06-22T15:21:02;29.50;29.40
37678;DHT22;23517;50.390;8.616;2023-06-22T15:23:30;29.50;29.80
37678;DHT22;23517;50.390;8.616;2023-06-22T15:25:58;29.40;29.90
37678;DHT22;23517;50.390;8.616;2023-06-22T15:28:25;29.40;30.30
37678;DHT22;23517;50.390;8.616;2023-06-22T15:30:52;29.30;30.50
37678;DHT22;23517;50.390;8.616;2023-06-22T15:33:19;29.30;30.70
37678;DHT22;23517;50.390;8.616;2023-06-22T15:35:46;29.30;30.90
37678;DHT22;23517;50.390;8.616;2023-06-22T15:38:13;29.30;31.00
37678;DHT22;23517;50.390;8.616;2023-06-22T15:40:39;29.20;31.30
37678;DHT22;23517;50.390;8.616;2023-06-22T15:43:09;29.20;31.30
37678;DHT22;23517;50.390;8.616;2023-06-22T15:45:36;29.10;31.50
37678;DHT22;23517;50.390;8.616;2023-06-22T15:48:03;29.10;30.80
37678;DHT22;23517;50.390;8.616;2023-06-22T15:50:30;29.10;31.30
37678;DHT22;23517;50.390;8.616;2023-06-22T15:52:57;29.00;33.60
37678;DHT22;23517;50.390;8.616;2023-06-22T15:55:24;28.60;33.00
37678;DHT22;23517;50.390;8.616;2023-06-22T15:57:50;28.30;36.00
37678;DHT22;23517;50.390;8.616;2023-06-22T16:00:18;27.80;38.40